createdAt,value
2018-12-26T00:01:23.127Z,3.70
2018-12-26T00:03:54.379Z,3.70
2018-12-26T00:06:25.726Z,3.60
2018-12-26T00:08:57.493Z,3.70
2018-12-26T00:11:28.889Z,3.70
2018-12-26T00:14:00.109Z,3.70
2018-12-26T00:16:31.575Z,3.60
2018-12-26T00:19:03.143Z,3.60
2018-12-26T00:21:34.961Z,3.60
2018-12-26T00:24:06.435Z,3.50
2018-12-26T00:26:37.995Z,3.50
2018-12-26T00:29:09.464Z,3.50
2018-12-26T00:31:40.712Z,3.50
2018-12-26T00:34:12.201Z,3.50
2018-12-26T00:36:43.610Z,3.50
2018-12-26T00:39:14.861Z,3.60
2018-12-26T00:41:46.134Z,3.60
2018-12-26T00:44:17.728Z,3.60
2018-12-26T00:46:49.165Z,3.50
2018-12-26T00:49:20.534Z,3.60
2018-12-26T00:51:51.807Z,3.80
2018-12-26T00:54:23.165Z,3.80
2018-12-26T00:56:54.684Z,3.90
2018-12-26T00:59:25.940Z,4.00
2018-12-26T01:01:57.238Z,3.90
2018-12-26T01:04:28.594Z,3.90
2018-12-26T01:06:59.714Z,3.90
2018-12-26T01:09:31.143Z,3.80
2018-12-26T01:12:02.799Z,3.70
2018-12-26T01:14:34.303Z,3.80
2018-12-26T01:17:05.870Z,3.70
2018-12-26T01:19:37.600Z,3.60
2018-12-26T01:22:08.678Z,3.60
2018-12-26T01:24:40.257Z,3.60
2018-12-26T01:27:11.734Z,3.50
2018-12-26T01:29:42.872Z,3.60
2018-12-26T01:32:14.393Z,3.60
2018-12-26T01:34:45.394Z,3.50
2018-12-26T01:37:16.679Z,3.50
2018-12-26T01:39:48.032Z,3.50
2018-12-26T01:42:19.421Z,3.50
2018-12-26T01:44:51.046Z,3.60
2018-12-26T01:47:22.608Z,3.60
2018-12-26T01:49:54.212Z,3.60
2018-12-26T01:52:25.655Z,3.50
2018-12-26T01:54:57.474Z,3.50
2018-12-26T01:57:28.879Z,3.50
2018-12-26T02:00:00.170Z,3.40
2018-12-26T02:02:31.585Z,3.40
2018-12-26T02:05:14.610Z,3.50
2018-12-26T02:07:46.201Z,3.40
2018-12-26T02:10:17.524Z,3.40
2018-12-26T02:12:48.845Z,3.40
2018-12-26T02:15:20.228Z,3.40
2018-12-26T02:17:51.455Z,3.40
2018-12-26T02:20:22.926Z,3.40
2018-12-26T02:22:54.224Z,3.40
2018-12-26T02:25:25.437Z,3.40
2018-12-26T02:27:56.451Z,3.30
2018-12-26T02:30:27.825Z,3.40
2018-12-26T02:32:59.419Z,3.50
2018-12-26T02:35:30.965Z,3.50
2018-12-26T02:38:02.252Z,3.40
2018-12-26T02:40:33.393Z,3.40
2018-12-26T02:43:04.783Z,3.40
2018-12-26T02:45:35.917Z,3.30
2018-12-26T02:48:07.149Z,3.30
2018-12-26T02:50:38.528Z,3.30
2018-12-26T02:53:09.954Z,3.30
2018-12-26T02:55:41.319Z,3.20
2018-12-26T02:58:12.494Z,3.20
2018-12-26T03:00:43.933Z,3.30
2018-12-26T03:03:15.111Z,3.30
2018-12-26T03:05:47.013Z,3.30
2018-12-26T03:08:18.649Z,3.30
2018-12-26T03:10:50.282Z,3.30
2018-12-26T03:13:21.629Z,3.30
2018-12-26T03:15:53.044Z,3.30
2018-12-26T03:18:24.880Z,3.40
2018-12-26T03:20:56.545Z,3.40
2018-12-26T03:23:27.694Z,3.40
2018-12-26T03:25:58.910Z,3.40
2018-12-26T03:28:30.346Z,3.30
2018-12-26T03:31:01.566Z,3.40
2018-12-26T03:33:32.879Z,3.50
2018-12-26T03:36:04.566Z,3.50
2018-12-26T03:38:36.128Z,3.50
2018-12-26T03:41:08.011Z,3.50
2018-12-26T03:43:39.755Z,3.50
2018-12-26T03:46:11.230Z,3.60
2018-12-26T03:48:42.786Z,3.60
2018-12-26T03:51:14.252Z,3.60
2018-12-26T03:53:45.928Z,3.60
2018-12-26T03:56:17.161Z,3.60
2018-12-26T03:58:49.061Z,3.60
2018-12-26T04:01:20.691Z,3.60
2018-12-26T04:03:52.620Z,3.60
2018-12-26T04:06:24.343Z,3.60
2018-12-26T04:08:56.246Z,3.60
2018-12-26T04:11:27.653Z,3.50
2018-12-26T04:13:59.395Z,3.60
2018-12-26T04:16:30.962Z,3.60
2018-12-26T04:19:02.143Z,3.60
2018-12-26T04:21:34.040Z,3.70
2018-12-26T04:24:05.602Z,3.70
2018-12-26T04:26:37.389Z,3.80
2018-12-26T04:29:09.002Z,3.80
2018-12-26T04:31:40.544Z,3.80
2018-12-26T04:34:11.777Z,3.70
2018-12-26T04:36:43.052Z,3.70
2018-12-26T04:39:14.657Z,3.90
2018-12-26T04:41:46.071Z,3.80
2018-12-26T04:44:17.699Z,3.80
2018-12-26T04:46:49.114Z,3.70
2018-12-26T04:49:20.596Z,3.70
2018-12-26T04:51:51.971Z,3.80
2018-12-26T04:54:23.324Z,3.80
2018-12-26T04:56:54.360Z,3.70
2018-12-26T04:59:25.956Z,3.70
2018-12-26T05:01:57.416Z,3.70
2018-12-26T05:04:28.653Z,3.60
2018-12-26T05:07:00.266Z,3.70
2018-12-26T05:09:31.882Z,3.70
2018-12-26T05:12:05.656Z,3.70
2018-12-26T05:14:36.464Z,3.70
2018-12-26T05:17:08.229Z,3.70
2018-12-26T05:19:39.500Z,3.70
2018-12-26T05:22:10.925Z,3.70
2018-12-26T05:24:42.570Z,3.60
2018-12-26T05:27:13.795Z,3.60
2018-12-26T05:29:44.852Z,3.50
2018-12-26T05:32:16.327Z,3.50
2018-12-26T05:34:47.940Z,3.50
2018-12-26T05:37:20.356Z,3.50
2018-12-26T05:39:51.852Z,3.50
2018-12-26T05:42:23.293Z,3.50
2018-12-26T05:45:06.221Z,3.50
2018-12-26T05:47:37.826Z,3.50
2018-12-26T05:50:09.466Z,3.40
2018-12-26T05:52:41.033Z,3.40
2018-12-26T05:55:12.368Z,3.40
2018-12-26T05:57:43.830Z,3.40
2018-12-26T06:00:15.488Z,3.40
2018-12-26T06:02:46.709Z,3.50
2018-12-26T06:05:18.430Z,3.50
2018-12-26T06:07:50.049Z,3.60
2018-12-26T06:10:21.553Z,3.60
2018-12-26T06:12:53.258Z,3.70
2018-12-26T06:15:24.877Z,3.60
2018-12-26T06:17:56.298Z,3.70
2018-12-26T06:20:27.938Z,3.70
2018-12-26T06:22:59.372Z,3.70
2018-12-26T06:25:30.691Z,3.60
2018-12-26T06:28:01.861Z,3.60
2018-12-26T06:30:33.000Z,3.60
2018-12-26T06:33:04.485Z,3.60
2018-12-26T06:35:35.851Z,3.70
2018-12-26T06:38:07.218Z,3.80
2018-12-26T06:40:38.583Z,3.90
2018-12-26T06:43:09.956Z,4.10
2018-12-26T06:45:41.415Z,4.10
2018-12-26T06:48:12.874Z,4.00
2018-12-26T06:50:44.173Z,4.00
2018-12-26T06:53:15.638Z,4.20
2018-12-26T06:55:47.233Z,4.20
2018-12-26T06:58:18.764Z,4.00
2018-12-26T07:00:50.197Z,3.90
2018-12-26T07:03:21.477Z,3.90
2018-12-26T07:05:53.084Z,4.00
2018-12-26T07:08:24.680Z,4.00
2018-12-26T07:10:55.938Z,3.90
2018-12-26T07:13:27.215Z,4.00
2018-12-26T07:15:58.434Z,4.10
2018-12-26T07:18:30.114Z,4.30
2018-12-26T07:21:01.288Z,4.70
2018-12-26T07:23:32.301Z,5.30
2018-12-26T07:26:03.923Z,5.90
2018-12-26T07:28:35.058Z,6.30
2018-12-26T07:31:06.655Z,7.00
2018-12-26T07:33:37.864Z,7.50
2018-12-26T07:36:09.389Z,7.90
2018-12-26T07:38:40.728Z,7.80
2018-12-26T07:41:12.154Z,8.00
2018-12-26T07:43:43.058Z,8.40
2018-12-26T07:46:14.331Z,8.70
2018-12-26T07:48:45.554Z,8.80
2018-12-26T07:51:16.899Z,9.20
2018-12-26T07:53:48.301Z,9.50
2018-12-26T07:56:19.641Z,8.70
2018-12-26T07:58:51.203Z,8.40
2018-12-26T08:01:22.287Z,8.10
2018-12-26T08:04:04.799Z,7.40
2018-12-26T08:06:36.564Z,7.30
2018-12-26T08:09:10.406Z,7.10
2018-12-26T08:11:41.489Z,6.70
2018-12-26T08:14:12.409Z,6.70
2018-12-26T08:16:43.621Z,6.50
2018-12-26T08:19:14.754Z,6.10
2018-12-26T08:21:47.177Z,6.20
2018-12-26T08:24:18.403Z,6.40
2018-12-26T08:26:49.976Z,6.00
2018-12-26T08:29:21.220Z,5.60
2018-12-26T08:31:52.564Z,6.00
2018-12-26T08:34:23.892Z,6.20
2018-12-26T08:36:55.165Z,6.60
2018-12-26T08:39:26.140Z,6.70
2018-12-26T08:41:57.710Z,6.80
2018-12-26T08:44:28.993Z,6.70
2018-12-26T08:47:00.829Z,6.60
2018-12-26T08:49:31.938Z,6.50
2018-12-26T08:52:03.322Z,6.40
2018-12-26T08:54:54.455Z,6.20
2018-12-26T08:57:26.000Z,6.30
2018-12-26T08:59:57.394Z,6.30
2018-12-26T09:02:28.818Z,6.20
2018-12-26T09:05:00.093Z,6.30
2018-12-26T09:07:31.691Z,6.30
2018-12-26T09:10:03.063Z,6.30
2018-12-26T09:12:34.884Z,6.20
2018-12-26T09:15:06.779Z,6.20
2018-12-26T09:17:38.434Z,6.20
2018-12-26T09:20:10.179Z,6.10
2018-12-26T09:22:41.768Z,6.10
2018-12-26T09:25:12.878Z,6.10
2018-12-26T09:27:44.451Z,6.10
2018-12-26T09:30:15.841Z,6.20
2018-12-26T09:32:47.560Z,6.30
2018-12-26T09:35:20.887Z,6.30
2018-12-26T09:37:51.809Z,6.40
2018-12-26T09:40:23.081Z,6.40
2018-12-26T09:42:54.767Z,6.50
2018-12-26T09:45:25.870Z,6.50
2018-12-26T09:47:57.334Z,6.60
2018-12-26T09:50:28.645Z,7.30
2018-12-26T09:53:00.042Z,7.80
2018-12-26T09:55:31.317Z,8.20
2018-12-26T09:58:02.788Z,9.00
2018-12-26T10:00:34.300Z,9.30
2018-12-26T10:03:05.621Z,9.20
2018-12-26T10:05:37.090Z,9.10
2018-12-26T10:08:08.373Z,9.30
2018-12-26T10:10:39.835Z,8.90
2018-12-26T10:13:11.427Z,8.70
2018-12-26T10:15:42.684Z,8.20
2018-12-26T10:18:14.369Z,7.60
2018-12-26T10:20:45.920Z,7.90
2018-12-26T10:23:17.332Z,8.10
2018-12-26T10:25:48.963Z,8.30
2018-12-26T10:28:20.124Z,8.20
2018-12-26T10:30:51.403Z,8.30
2018-12-26T10:33:23.950Z,8.20
2018-12-26T10:35:55.519Z,7.70
2018-12-26T10:38:27.265Z,7.60
2018-12-26T10:40:59.885Z,7.50
2018-12-26T10:43:31.590Z,7.20
2018-12-26T10:46:03.032Z,7.00
2018-12-26T10:48:34.305Z,6.30
2018-12-26T10:51:05.985Z,5.80
2018-12-26T10:53:38.014Z,5.60
2018-12-26T10:56:09.102Z,5.60
2018-12-26T10:58:40.339Z,5.40
2018-12-26T11:01:11.947Z,5.40
2018-12-26T11:03:43.249Z,5.30
2018-12-26T11:06:14.466Z,5.20
2018-12-26T11:08:46.172Z,5.10
2018-12-26T11:11:17.730Z,5.20
2018-12-26T11:13:49.377Z,5.20
2018-12-26T11:16:20.717Z,5.20
2018-12-26T11:19:04.190Z,5.00
2018-12-26T11:21:35.571Z,4.60
2018-12-26T11:24:06.876Z,4.70
2018-12-26T11:26:38.246Z,4.60
2018-12-26T11:29:18.222Z,4.60
2018-12-26T11:31:43.126Z,4.50
2018-12-26T11:34:14.753Z,4.50
2018-12-26T11:36:46.074Z,4.30
2018-12-26T11:39:17.509Z,4.10
2018-12-26T11:41:49.107Z,3.70
2018-12-26T11:44:20.820Z,3.70
2018-12-26T11:46:52.287Z,3.70
2018-12-26T11:49:23.858Z,3.80
2018-12-26T11:51:55.650Z,4.00
2018-12-26T11:54:27.393Z,4.10
2018-12-26T11:56:58.744Z,4.30
2018-12-26T11:59:30.290Z,4.30
2018-12-26T12:02:02.172Z,4.20
2018-12-26T12:04:33.877Z,4.10
2018-12-26T12:07:05.451Z,4.20
2018-12-26T12:09:36.954Z,4.30
2018-12-26T12:12:08.596Z,4.40
2018-12-26T12:14:40.183Z,4.40
2018-12-26T12:17:11.677Z,4.50
2018-12-26T12:19:45.145Z,4.40
2018-12-26T12:22:16.286Z,4.40
2018-12-26T12:24:47.965Z,4.80
2018-12-26T12:27:20.146Z,5.00
2018-12-26T12:29:51.814Z,5.10
2018-12-26T12:32:23.395Z,5.10
2018-12-26T12:34:55.126Z,5.20
2018-12-26T12:37:26.751Z,5.20
2018-12-26T12:39:58.666Z,5.20
2018-12-26T12:42:30.018Z,5.30
2018-12-26T12:45:02.162Z,5.30
2018-12-26T12:47:34.923Z,5.40
2018-12-26T12:50:07.323Z,5.50
2018-12-26T12:52:39.174Z,5.50
2018-12-26T12:55:22.108Z,5.50
2018-12-26T12:57:54.150Z,5.50
2018-12-26T13:00:25.949Z,5.60
2018-12-26T13:03:00.516Z,5.60
2018-12-26T13:05:36.412Z,5.60
2018-12-26T13:08:07.769Z,5.70
2018-12-26T13:10:39.416Z,5.70
2018-12-26T13:13:10.787Z,5.70
2018-12-26T13:15:42.476Z,5.60
2018-12-26T13:18:13.851Z,5.50
2018-12-26T13:20:45.402Z,5.40
2018-12-26T13:23:16.942Z,5.30
2018-12-26T13:25:48.361Z,5.30
2018-12-26T13:28:19.788Z,5.30
2018-12-26T13:30:51.282Z,5.30
2018-12-26T13:33:22.875Z,5.40
2018-12-26T13:35:54.809Z,5.50
2018-12-26T13:38:26.185Z,5.50
2018-12-26T13:40:57.970Z,5.50
2018-12-26T13:43:29.993Z,5.50
2018-12-26T13:46:01.501Z,5.60
2018-12-26T13:48:33.080Z,5.60
2018-12-26T13:51:04.666Z,5.60
2018-12-26T13:53:36.276Z,5.50
2018-12-26T13:56:07.979Z,5.40
2018-12-26T13:58:39.462Z,5.30
2018-12-26T14:01:11.169Z,5.20
2018-12-26T14:03:42.678Z,5.10
2018-12-26T14:06:14.565Z,5.00
2018-12-26T14:09:01.693Z,4.90
2018-12-26T14:11:32.888Z,4.80
2018-12-26T14:14:04.402Z,4.80
2018-12-26T14:16:35.891Z,4.70
2018-12-26T14:19:07.625Z,4.80
2018-12-26T14:21:43.940Z,4.80
2018-12-26T14:24:22.062Z,4.80
2018-12-26T14:27:04.743Z,4.70
2018-12-26T14:29:45.813Z,4.70
2018-12-26T14:32:17.564Z,4.70
2018-12-26T14:34:59.763Z,4.70
2018-12-26T14:37:31.316Z,4.70
2018-12-26T14:40:04.280Z,4.80
2018-12-26T14:45:17.832Z,4.90
2018-12-26T14:47:57.149Z,5.10
2018-12-26T14:50:28.713Z,5.00
2018-12-26T14:53:00.472Z,5.00
2018-12-26T14:55:32.426Z,4.90
2018-12-26T14:58:04.209Z,4.80
2018-12-26T15:00:35.628Z,4.70
2018-12-26T15:03:09.012Z,4.60
2018-12-26T15:05:45.593Z,4.70
2018-12-26T15:08:17.758Z,4.80
2018-12-26T15:10:49.293Z,4.80
2018-12-26T15:13:20.960Z,4.70
2018-12-26T15:15:52.523Z,4.60
2018-12-26T15:18:27.353Z,4.60
2018-12-26T15:20:58.962Z,4.40
2018-12-26T15:23:30.781Z,4.40
2018-12-26T15:26:03.875Z,4.30
2018-12-26T15:28:35.872Z,4.20
2018-12-26T15:31:07.200Z,4.30
2018-12-26T15:33:44.107Z,4.20
2018-12-26T15:36:15.701Z,4.20
2018-12-26T15:38:47.534Z,4.30
2018-12-26T15:41:21.907Z,4.30
2018-12-26T15:43:53.822Z,4.40
2018-12-26T15:46:25.455Z,4.40
2018-12-26T15:48:57.281Z,4.40
2018-12-26T15:51:28.761Z,4.30
2018-12-26T15:54:00.238Z,4.20
2018-12-26T15:56:35.105Z,4.10
2018-12-26T15:59:07.082Z,4.10
2018-12-26T16:01:39.345Z,4.10
2018-12-26T16:04:10.935Z,4.00
2018-12-26T16:06:42.477Z,4.00
2018-12-26T16:09:14.392Z,4.00
2018-12-26T16:11:46.179Z,4.00
2018-12-26T16:14:18.359Z,3.90
2018-12-26T16:16:50.077Z,3.80
2018-12-26T16:19:26.883Z,3.60
2018-12-26T16:21:58.510Z,3.60
2018-12-26T16:24:30.080Z,3.60
2018-12-26T16:27:01.302Z,3.50
2018-12-26T16:29:35.752Z,3.50
2018-12-26T16:32:07.431Z,3.50
2018-12-26T16:34:39.128Z,3.50
2018-12-26T16:37:11.251Z,3.40
2018-12-26T16:39:42.730Z,3.40
2018-12-26T16:42:14.560Z,3.40
2018-12-26T16:44:45.953Z,3.50
2018-12-26T16:47:19.243Z,3.50
2018-12-26T16:49:51.101Z,3.60
2018-12-26T16:52:24.581Z,3.90
2018-12-26T16:54:56.695Z,4.00
2018-12-26T16:57:29.727Z,3.80
2018-12-26T17:00:01.508Z,3.70
2018-12-26T17:02:32.962Z,3.50
2018-12-26T17:05:06.815Z,3.50
2018-12-26T17:07:38.497Z,3.60
2018-12-26T17:10:14.412Z,3.40
2018-12-26T17:12:45.877Z,3.40
2018-12-26T17:15:17.638Z,3.40
2018-12-26T17:17:49.423Z,3.30
2018-12-26T17:20:25.224Z,3.30
2018-12-26T17:22:58.602Z,3.20
2018-12-26T17:25:30.326Z,3.10
2018-12-26T17:28:02.299Z,3.10
2018-12-26T17:30:40.473Z,3.10
2018-12-26T17:33:13.739Z,3.10
2018-12-26T17:35:51.992Z,3.10
2018-12-26T17:38:34.544Z,3.20
2018-12-26T17:41:10.689Z,3.20
2018-12-26T17:43:42.794Z,3.10
2018-12-26T17:46:28.522Z,3.10
2018-12-26T17:49:00.318Z,3.10
2018-12-26T17:51:33.233Z,3.10
2018-12-26T17:54:32.096Z,3.10
2018-12-26T17:57:11.515Z,3.10
2018-12-26T17:59:52.863Z,3.00
2018-12-26T18:02:31.907Z,3.00
2018-12-26T18:05:04.312Z,3.00
2018-12-26T18:07:37.193Z,2.90
2018-12-26T18:10:10.116Z,2.90
2018-12-26T18:12:41.954Z,3.00
2018-12-26T18:15:13.910Z,3.00
2018-12-26T18:17:45.411Z,2.90
2018-12-26T18:20:16.987Z,3.00
2018-12-26T18:22:48.832Z,3.00
2018-12-26T18:25:20.352Z,3.00
2018-12-26T18:27:52.720Z,3.00
2018-12-26T18:30:24.406Z,2.90
2018-12-26T18:32:55.669Z,2.90
2018-12-26T18:35:26.828Z,3.00
2018-12-26T18:37:58.844Z,2.90
2018-12-26T18:40:30.380Z,3.00
2018-12-26T18:43:01.978Z,3.10
2018-12-26T18:45:33.873Z,3.10
2018-12-26T18:48:05.513Z,3.10
2018-12-26T18:50:37.211Z,3.00
2018-12-26T18:53:08.920Z,3.00
2018-12-26T18:55:40.521Z,3.00
2018-12-26T18:58:12.486Z,3.00
2018-12-26T19:00:44.732Z,3.00
2018-12-26T19:03:16.745Z,3.10
2018-12-26T19:05:48.833Z,3.10
2018-12-26T19:08:20.954Z,3.20
2018-12-26T19:10:53.155Z,3.20
2018-12-26T19:13:25.560Z,3.20
2018-12-26T19:15:57.705Z,3.20
2018-12-26T19:18:29.737Z,3.20
2018-12-26T19:21:01.862Z,3.10
2018-12-26T19:23:34.141Z,3.10
2018-12-26T19:26:05.763Z,3.10
2018-12-26T19:28:37.399Z,3.00
2018-12-26T19:31:09.031Z,3.00
2018-12-26T19:33:40.442Z,3.00
2018-12-26T19:36:23.285Z,2.90
2018-12-26T19:38:54.737Z,3.00
2018-12-26T19:41:25.966Z,3.00
2018-12-26T19:43:57.565Z,3.00
2018-12-26T19:46:29.546Z,3.00
2018-12-26T19:49:01.963Z,3.00
2018-12-26T19:51:34.127Z,3.00
2018-12-26T19:54:06.607Z,2.90
2018-12-26T19:56:40.308Z,2.90
2018-12-26T19:59:12.568Z,3.00
2018-12-26T20:01:48.285Z,3.00
2018-12-26T20:04:18.404Z,3.10
2018-12-26T20:06:49.880Z,3.00
2018-12-26T20:09:21.687Z,3.00
2018-12-26T20:11:52.935Z,2.90
2018-12-26T20:14:24.459Z,3.00
2018-12-26T20:16:56.002Z,3.00
2018-12-26T20:19:27.558Z,3.00
2018-12-26T20:21:59.054Z,3.00
2018-12-26T20:24:30.591Z,3.00
2018-12-26T20:27:01.989Z,3.00
2018-12-26T20:29:33.444Z,3.00
2018-12-26T20:32:05.064Z,3.00
2018-12-26T20:34:36.415Z,3.00
2018-12-26T20:37:08.093Z,3.00
2018-12-26T20:39:39.727Z,3.00
2018-12-26T20:42:11.273Z,3.00
2018-12-26T20:44:42.501Z,2.90
2018-12-26T20:47:13.766Z,2.80
2018-12-26T20:49:45.226Z,2.80
2018-12-26T20:52:16.595Z,2.80
2018-12-26T20:54:48.023Z,2.80
2018-12-26T20:57:19.861Z,2.70
2018-12-26T20:59:51.767Z,2.70
2018-12-26T21:02:23.069Z,2.60
2018-12-26T21:04:54.803Z,2.60
2018-12-26T21:07:26.417Z,2.50
2018-12-26T21:09:58.044Z,2.40
2018-12-26T21:12:30.388Z,2.30
2018-12-26T21:15:01.955Z,2.20
2018-12-26T21:17:33.326Z,2.20
2018-12-26T21:20:04.798Z,2.10
2018-12-26T21:22:36.378Z,2.00
2018-12-26T21:25:09.240Z,2.00
2018-12-26T21:27:41.020Z,1.90
2018-12-26T21:30:15.483Z,1.80
2018-12-26T21:32:47.318Z,1.70
2018-12-26T21:35:19.021Z,1.70
2018-12-26T21:37:50.931Z,1.60
2018-12-26T21:40:22.469Z,1.50
2018-12-26T21:42:55.170Z,1.60
2018-12-26T21:45:26.990Z,1.50
2018-12-26T21:47:58.569Z,1.50
2018-12-26T21:50:30.466Z,1.50
2018-12-26T21:53:02.188Z,1.40
2018-12-26T21:55:33.847Z,1.40
2018-12-26T21:58:05.525Z,1.40
2018-12-26T22:00:36.855Z,1.30
2018-12-26T22:03:09.542Z,1.30
2018-12-26T22:05:41.205Z,1.30
2018-12-26T22:08:12.841Z,1.30
2018-12-26T22:10:44.468Z,1.30
2018-12-26T22:13:16.056Z,1.40
2018-12-26T22:15:47.682Z,1.40
2018-12-26T22:18:19.306Z,1.30
2018-12-26T22:21:02.906Z,1.30
2018-12-26T22:23:34.487Z,1.30
2018-12-26T22:26:05.985Z,1.30
2018-12-26T22:28:37.820Z,1.20
2018-12-26T22:31:10.453Z,1.20
2018-12-26T22:33:42.460Z,1.20
2018-12-26T22:36:14.175Z,1.20
2018-12-26T22:38:45.931Z,1.10
2018-12-26T22:41:17.753Z,1.20
2018-12-26T22:43:49.673Z,1.20
2018-12-26T22:46:22.482Z,1.10
2018-12-26T22:48:54.093Z,1.10
2018-12-26T22:51:25.623Z,1.00
2018-12-26T22:53:57.196Z,0.90
2018-12-26T22:56:28.737Z,0.80
2018-12-26T22:59:00.500Z,0.80
2018-12-26T23:01:32.096Z,0.60
2018-12-26T23:04:03.762Z,0.50
2018-12-26T23:06:36.506Z,0.50
2018-12-26T23:09:09.036Z,0.50
2018-12-26T23:11:40.669Z,0.40
2018-12-26T23:14:12.226Z,0.40
2018-12-26T23:16:43.808Z,0.40
2018-12-26T23:19:15.128Z,0.40
2018-12-26T23:21:46.986Z,0.40
2018-12-26T23:24:18.565Z,0.40
2018-12-26T23:26:50.119Z,0.30
2018-12-26T23:29:21.934Z,0.40
2018-12-26T23:31:54.886Z,0.30
2018-12-26T23:34:26.678Z,0.30
2018-12-26T23:36:58.297Z,0.30
2018-12-26T23:39:29.851Z,0.30
2018-12-26T23:42:01.253Z,0.30
2018-12-26T23:44:32.918Z,0.30
2018-12-26T23:47:04.767Z,0.20
2018-12-26T23:49:36.538Z,0.30
2018-12-26T23:52:08.589Z,0.30
2018-12-26T23:54:40.264Z,0.30
2018-12-26T23:57:11.784Z,0.30
2018-12-26T23:59:43.287Z,0.30
